• Join FlightAware (Why Join?)
  • Login
  • US Flag 
04:29PM EST


 

Airport Tracker/Info


-or-


 

Live Flight TrackerFlight Track Log ✈ N25572 ✈ 01-Jul-2013 ✈ KMLB - KDAB

Flight Track Log - Related Links

Times and Time Zones

All times are in EDT time to prevent confusion due to time zone crossing. See the N25572 flight status page for this flight to view local times or setup timezone preferences in your user account.

Time Position Orientation Groundspeed Altitude Reporting Facility
EDT Latitude Longitude Course Direction KTS MPH feet Rate Location/Type
06:17PM 28.1000 -80.6333 344° North 50 58 300  Level Orlando TRACON
06:18PM 28.1000 -80.6167 90° East 76 87 800 360 Climbing Orlando TRACON
06:19PM 28.1167 -80.5833 60° Northeast 93 107 1,200 300 Climbing Orlando TRACON
06:20PM 28.1333 -80.5667 41° Northeast 96 110 1,500 360 Climbing Orlando TRACON
06:21PM 28.1500 -80.5833 319° Northwest 82 94 1,900 300 Climbing Orlando TRACON
06:22PM 28.1500 -80.6000 270° West 69 79 2,100 240 Climbing Orlando TRACON
06:23PM 28.2581 -80.6972 344° North  Level FlightAware Approximate
06:23PM 28.1500 -80.6333 270° West 72 83 2,400  Level Orlando TRACON
06:24PM 28.1667 -80.6500 319° Northwest 75 86 2,800 300 Climbing Orlando TRACON
06:25PM 28.1833 -80.6667 319° Northwest 111 128 3,000 180 Climbing Orlando TRACON
06:26PM 28.2000 -80.6833 319° Northwest 103 119 3,200 180 Climbing Orlando TRACON
06:27PM 28.2333 -80.6833 360° North 111 128 3,400  Climbing Orlando TRACON
06:28PM 28.2667 -80.7000 336° Northwest 120 138 3,200 -180 Descending Orlando TRACON
06:29PM 28.3000 -80.7000 360° North 120 138 3,100 -120 Descending Orlando TRACON
06:30PM 28.3333 -80.7167 336° Northwest 110 127 3,000 -60 Descending Orlando TRACON
06:31PM 28.3667 -80.7333 336° Northwest 118 136 3,000  Level Orlando TRACON
06:32PM 28.3833 -80.7333 360° North 110 127 3,000  Level Orlando TRACON
06:33PM 28.4167 -80.7500 336° Northwest 109 125 3,000  Level Orlando TRACON
06:34PM 28.4500 -80.7500 360° North 109 125 3,000  Level Orlando TRACON
06:35PM 28.4667 -80.7667 319° Northwest 109 125 3,000  Level Orlando TRACON
06:36PM 28.5000 -80.7833 336° Northwest 103 119 3,000  Level Orlando TRACON
06:37PM 28.5333 -80.8000 336° Northwest 114 131 3,000  Level Orlando TRACON
06:38PM 28.5667 -80.8000 360° North 112 129 3,000  Level Orlando TRACON
06:39PM 28.5833 -80.8167 319° Northwest 114 131 3,000  Level Orlando TRACON
06:40PM 28.6333 -80.8167 360° North 113 130 3,100  Climbing Orlando TRACON
06:41PM 28.6500 -80.8333 319° Northwest 104 120 3,100 -60 Level Orlando TRACON
06:43PM 28.6889 -80.8619 327° Northwest 109 125 3,000 -60 Descending Jacksonville Center
06:44PM 28.7164 -80.8781 333° Northwest 110 127 3,000  Level Jacksonville Center
06:45PM 28.7436 -80.8917 336° Northwest 116 133 3,000  Level Jacksonville Center
06:46PM 28.7731 -80.9031 341° North 105 121 3,000  Level Jacksonville Center
06:47PM 28.7983 -80.9192 331° Northwest 108 124 3,100  Climbing Jacksonville Center
06:48PM 28.8278 -80.9350 335° Northwest 106 122 3,100  Level Jacksonville Center
06:49PM 28.8553 -80.9486 337° Northwest 110 127 3,100 -60 Level Jacksonville Center
06:50PM 28.8844 -80.9600 341° North 111 128 3,000 -60 Descending Jacksonville Center
06:51PM 28.9181 -80.9642 354° North 116 133 3,000  Level Jacksonville Center
06:52PM 28.9494 -80.9658 357° North 117 135 3,100  Climbing Jacksonville Center
06:53PM 28.9869 -80.9650 North 119 137 3,100  Level Jacksonville Center
06:54PM 29.0181 -80.9550 16° North 122 140 3,100 -60 Level Jacksonville Center
06:55PM 29.0533 -80.9472 11° North 123 142 3,000 -60 Descending Jacksonville Center
06:56PM 29.0867 -80.9394 12° North 124 143 3,000  Level Jacksonville Center
06:57PM 29.1181 -80.9389 North 123 142 3,000 -60 Level Jacksonville Center
06:58PM 29.1514 -80.9453 350° North 120 138 2,900 -300 Descending Jacksonville Center
06:59PM 29.1831 -80.9614 336° Northwest 123 142 2,400 -600 Descending Jacksonville Center
07:00PM 29.1961 -80.9944 294° West 96 110 1,700 -780 Descending Jacksonville Center
07:01PM 29.1925 -81.0278 263° West 101 116 800 -900 Descending Jacksonville Center
07:03PM 29.1799 -81.0581 217° Southwest  Level Estimated
07:10PM 29.1799 -81.0581 336° Northwest  Level Estimated
07:11PM 29.1799 -81.0581 336° Northwest  Level Estimated
07:12PM 29.1799 -81.0581 336° Northwest  Level Estimated